createdAt,value
2023-03-26T00:08:24.594Z,5.43
2023-03-26T00:18:31.732Z,5.43
2023-03-26T00:28:38.215Z,5.44
2023-03-26T00:38:45.077Z,5.47
2023-03-26T00:48:51.714Z,5.46
2023-03-26T00:58:57.821Z,5.47
2023-03-26T01:09:13.457Z,5.47
2023-03-26T01:19:30.371Z,5.43
2023-03-26T01:29:44.126Z,5.44
2023-03-26T01:39:57.154Z,5.48
2023-03-26T01:50:03.088Z,5.49
2023-03-26T02:00:19.431Z,5.46
2023-03-26T02:10:29.728Z,5.43
2023-03-26T02:20:35.458Z,5.38
2023-03-26T02:30:41.206Z,5.24
2023-03-26T02:40:46.897Z,5.12
2023-03-26T02:50:54.680Z,5.07
2023-03-26T03:01:03.336Z,5.12
2023-03-26T03:11:13.069Z,5.19
2023-03-26T03:21:21.153Z,5.25
2023-03-26T03:31:28.439Z,5.26
2023-03-26T03:41:34.293Z,5.16
2023-03-26T03:51:40.055Z,5.10
2023-03-26T04:01:46.851Z,5.14
2023-03-26T04:11:52.608Z,5.24
2023-03-26T04:22:02.535Z,5.31
2023-03-26T04:32:12.710Z,5.33
2023-03-26T04:42:20.159Z,5.28
2023-03-26T04:52:26.005Z,5.19
2023-03-26T05:02:32.670Z,5.11
2023-03-26T05:12:38.434Z,5.07
2023-03-26T05:22:44.228Z,5.15
2023-03-26T05:32:51.993Z,5.31
2023-03-26T05:42:57.945Z,7.75
2023-03-26T05:53:03.792Z,11.84
2023-03-26T06:03:12.719Z,10.53
2023-03-26T06:13:19.109Z,11.36
2023-03-26T06:23:24.913Z,9.17
2023-03-26T06:33:31.238Z,8.73
2023-03-26T06:43:37.910Z,11.77
2023-03-26T06:53:43.557Z,14.43
2023-03-26T07:03:49.656Z,12.51
2023-03-26T07:13:56.880Z,11.33
2023-03-26T07:24:04.369Z,10.05
2023-03-26T07:34:20.877Z,11.81
2023-03-26T07:44:39.405Z,10.42
2023-03-26T07:54:46.323Z,9.78
2023-03-26T08:05:04.235Z,10.69
2023-03-26T08:15:19.197Z,9.39
2023-03-26T08:25:33.393Z,9.33
2023-03-26T08:35:42.374Z,8.42
2023-03-26T08:46:09.045Z,8.20
2023-03-26T08:56:25.900Z,8.34
2023-03-26T09:06:57.549Z,7.30
2023-03-26T09:17:21.258Z,7.69
2023-03-26T09:27:49.818Z,8.48
2023-03-26T09:38:00.658Z,9.43
2023-03-26T09:48:20.911Z,10.01
2023-03-26T09:58:43.084Z,10.89
2023-03-26T10:09:00.576Z,11.19
2023-03-26T10:19:22.457Z,11.05
2023-03-26T10:29:50.155Z,11.61
2023-03-26T10:40:11.288Z,11.95
2023-03-26T10:50:32.783Z,12.43
2023-03-26T11:00:44.695Z,12.09
2023-03-26T11:10:57.692Z,11.69
2023-03-26T11:21:19.316Z,11.77
2023-03-26T11:31:40.052Z,12.08
2023-03-26T11:41:46.390Z,11.79
2023-03-26T11:51:52.238Z,11.70
2023-03-26T12:02:15.722Z,11.06
2023-03-26T12:12:22.724Z,10.80
2023-03-26T12:22:36.319Z,11.05
2023-03-26T12:32:46.797Z,10.95
2023-03-26T12:44:53.289Z,11.07
2023-03-26T12:53:39.638Z,10.26
2023-03-26T13:04:09.894Z,9.70
2023-03-26T13:14:49.869Z,10.00
2023-03-26T13:25:07.678Z,10.03
2023-03-26T13:35:22.396Z,10.46
2023-03-26T13:45:43.959Z,10.94
2023-03-26T13:55:53.441Z,10.59
2023-03-26T14:06:05.761Z,10.60
2023-03-26T14:16:19.957Z,11.05
2023-03-26T14:26:37.367Z,11.35
2023-03-26T14:37:27.051Z,11.08
2023-03-26T14:47:41.442Z,10.66
2023-03-26T14:58:04.978Z,10.70
2023-03-26T15:08:41.785Z,10.56
2023-03-26T15:19:17.830Z,10.57
2023-03-26T15:30:05.626Z,10.56
2023-03-26T15:40:36.241Z,10.33
2023-03-26T15:50:54.189Z,10.08
2023-03-26T16:01:19.296Z,9.70
2023-03-26T16:11:37.042Z,9.37
2023-03-26T16:21:45.971Z,9.13
2023-03-26T16:32:01.126Z,8.74
2023-03-26T16:42:12.347Z,8.34
2023-03-26T16:52:24.197Z,7.97
2023-03-26T17:02:32.990Z,7.68
2023-03-26T17:12:42.850Z,7.42
2023-03-26T17:22:48.862Z,7.08
2023-03-26T17:32:59.988Z,6.69
2023-03-26T17:43:06.287Z,6.35
2023-03-26T17:53:17.932Z,6.02
2023-03-26T18:03:25.138Z,5.71
2023-03-26T18:13:43.398Z,5.42
2023-03-26T18:23:48.866Z,5.13
2023-03-26T18:33:57.080Z,4.83
2023-03-26T18:44:04.046Z,4.56
2023-03-26T18:54:09.475Z,4.36
2023-03-26T19:04:14.012Z,4.17
2023-03-26T19:14:19.797Z,3.96
2023-03-26T19:24:24.321Z,3.75
2023-03-26T19:34:33.518Z,3.54
2023-03-26T19:44:39.552Z,3.37
2023-03-26T19:55:00.236Z,3.17
2023-03-26T20:05:04.848Z,2.99
2023-03-26T20:15:19.519Z,2.82
2023-03-26T20:25:26.058Z,2.64
2023-03-26T20:35:35.892Z,2.54
2023-03-26T20:45:41.665Z,2.63
2023-03-26T20:55:46.283Z,2.89
2023-03-26T21:05:52.535Z,3.03
2023-03-26T21:15:58.874Z,2.89
2023-03-26T21:26:07.387Z,2.79
2023-03-26T21:36:13.445Z,3.02
2023-03-26T21:46:18.345Z,3.43
2023-03-26T21:56:28.949Z,3.76
2023-03-26T22:06:37.063Z,4.01
2023-03-26T22:16:41.653Z,4.18
2023-03-26T22:26:46.155Z,4.31
2023-03-26T22:39:48.569Z,4.42
2023-03-26T22:49:54.442Z,4.49
2023-03-26T23:00:08.372Z,4.60
2023-03-26T23:10:14.455Z,4.66
2023-03-26T23:21:23.980Z,4.68
2023-03-26T23:31:59.844Z,4.67
2023-03-26T23:42:05.633Z,4.69
2023-03-26T23:52:38.178Z,4.68
